sensor_id;sensor_type;location;lat;lon;timestamp;P1;durP1;ratioP1;P2;durP2;ratioP2
19595;SDS011;9945;46.010;8.946;2023-03-04T00:02:21;12.57;;;11.00;;
19595;SDS011;9945;46.010;8.946;2023-03-04T00:04:48;12.80;;;11.03;;
19595;SDS011;9945;46.010;8.946;2023-03-04T00:07:15;17.13;;;10.87;;
19595;SDS011;9945;46.010;8.946;2023-03-04T00:09:43;14.20;;;11.23;;
19595;SDS011;9945;46.010;8.946;2023-03-04T00:12:10;11.50;;;10.10;;
19595;SDS011;9945;46.010;8.946;2023-03-04T00:14:37;14.87;;;10.73;;
19595;SDS011;9945;46.010;8.946;2023-03-04T00:17:04;11.53;;;10.03;;
19595;SDS011;9945;46.010;8.946;2023-03-04T00:19:33;18.13;;;11.20;;
19595;SDS011;9945;46.010;8.946;2023-03-04T00:22:00;12.87;;;10.23;;
19595;SDS011;9945;46.010;8.946;2023-03-04T00:24:28;17.43;;;11.10;;
19595;SDS011;9945;46.010;8.946;2023-03-04T00:26:55;10.37;;;9.27;;
19595;SDS011;9945;46.010;8.946;2023-03-04T00:29:21;12.03;;;10.73;;
19595;SDS011;9945;46.010;8.946;2023-03-04T00:31:48;11.43;;;10.20;;
19595;SDS011;9945;46.010;8.946;2023-03-04T00:34:15;12.27;;;10.97;;
19595;SDS011;9945;46.010;8.946;2023-03-04T00:36:43;11.87;;;10.67;;
19595;SDS011;9945;46.010;8.946;2023-03-04T00:39:10;16.63;;;11.20;;
19595;SDS011;9945;46.010;8.946;2023-03-04T00:41:37;13.17;;;11.27;;
19595;SDS011;9945;46.010;8.946;2023-03-04T00:44:04;14.57;;;11.73;;
19595;SDS011;9945;46.010;8.946;2023-03-04T00:46:32;13.40;;;11.03;;
19595;SDS011;9945;46.010;8.946;2023-03-04T00:48:59;13.60;;;11.43;;
19595;SDS011;9945;46.010;8.946;2023-03-04T00:51:26;14.80;;;11.87;;
19595;SDS011;9945;46.010;8.946;2023-03-04T00:53:54;15.37;;;11.80;;
19595;SDS011;9945;46.010;8.946;2023-03-04T00:56:21;13.07;;;10.67;;
19595;SDS011;9945;46.010;8.946;2023-03-04T00:58:47;15.10;;;11.20;;
19595;SDS011;9945;46.010;8.946;2023-03-04T01:01:14;12.37;;;11.10;;
19595;SDS011;9945;46.010;8.946;2023-03-04T01:03:41;12.70;;;11.40;;
19595;SDS011;9945;46.010;8.946;2023-03-04T01:06:08;12.07;;;10.70;;
19595;SDS011;9945;46.010;8.946;2023-03-04T01:08:35;12.47;;;11.20;;
19595;SDS011;9945;46.010;8.946;2023-03-04T01:11:04;13.67;;;10.67;;
19595;SDS011;9945;46.010;8.946;2023-03-04T01:13:31;14.63;;;11.33;;
19595;SDS011;9945;46.010;8.946;2023-03-04T01:15:58;13.63;;;10.37;;
19595;SDS011;9945;46.010;8.946;2023-03-04T01:18:25;12.63;;;10.37;;
19595;SDS011;9945;46.010;8.946;2023-03-04T01:20:52;15.30;;;11.67;;
19595;SDS011;9945;46.010;8.946;2023-03-04T01:23:19;14.23;;;11.47;;
19595;SDS011;9945;46.010;8.946;2023-03-04T01:25:46;17.43;;;12.40;;
19595;SDS011;9945;46.010;8.946;2023-03-04T01:28:15;12.93;;;10.97;;
19595;SDS011;9945;46.010;8.946;2023-03-04T01:30:42;11.80;;;10.60;;
19595;SDS011;9945;46.010;8.946;2023-03-04T01:33:08;13.57;;;10.53;;
19595;SDS011;9945;46.010;8.946;2023-03-04T01:35:35;13.23;;;10.50;;
19595;SDS011;9945;46.010;8.946;2023-03-04T01:38:02;16.00;;;10.47;;
19595;SDS011;9945;46.010;8.946;2023-03-04T01:40:29;13.47;;;11.33;;
19595;SDS011;9945;46.010;8.946;2023-03-04T01:42:56;13.00;;;11.33;;
19595;SDS011;9945;46.010;8.946;2023-03-04T01:45:25;11.60;;;10.40;;
19595;SDS011;9945;46.010;8.946;2023-03-04T01:47:52;12.33;;;9.90;;
19595;SDS011;9945;46.010;8.946;2023-03-04T01:50:21;12.67;;;11.10;;
19595;SDS011;9945;46.010;8.946;2023-03-04T01:52:52;14.17;;;11.83;;
19595;SDS011;9945;46.010;8.946;2023-03-04T01:55:20;12.07;;;10.77;;
19595;SDS011;9945;46.010;8.946;2023-03-04T01:57:49;12.23;;;10.73;;
19595;SDS011;9945;46.010;8.946;2023-03-04T02:00:18;13.17;;;10.37;;
19595;SDS011;9945;46.010;8.946;2023-03-04T02:02:50;14.13;;;10.90;;
19595;SDS011;9945;46.010;8.946;2023-03-04T02:05:19;14.07;;;10.57;;
19595;SDS011;9945;46.010;8.946;2023-03-04T02:07:47;14.93;;;10.73;;
19595;SDS011;9945;46.010;8.946;2023-03-04T02:10:14;13.77;;;11.00;;
19595;SDS011;9945;46.010;8.946;2023-03-04T02:12:41;11.43;;;9.63;;
19595;SDS011;9945;46.010;8.946;2023-03-04T02:15:09;11.70;;;10.50;;
19595;SDS011;9945;46.010;8.946;2023-03-04T02:17:36;12.40;;;10.83;;
19595;SDS011;9945;46.010;8.946;2023-03-04T02:20:08;13.47;;;11.27;;
19595;SDS011;9945;46.010;8.946;2023-03-04T02:22:42;13.17;;;10.60;;
19595;SDS011;9945;46.010;8.946;2023-03-04T02:25:15;13.53;;;10.23;;
19595;SDS011;9945;46.010;8.946;2023-03-04T02:27:48;11.80;;;10.60;;
19595;SDS011;9945;46.010;8.946;2023-03-04T02:30:16;11.80;;;10.53;;
19595;SDS011;9945;46.010;8.946;2023-03-04T02:32:45;10.37;;;9.40;;
19595;SDS011;9945;46.010;8.946;2023-03-04T02:35:13;11.03;;;9.27;;
19595;SDS011;9945;46.010;8.946;2023-03-04T02:37:42;11.77;;;10.53;;
19595;SDS011;9945;46.010;8.946;2023-03-04T02:40:11;10.53;;;9.53;;
19595;SDS011;9945;46.010;8.946;2023-03-04T02:42:42;12.50;;;10.47;;
19595;SDS011;9945;46.010;8.946;2023-03-04T02:48:03;11.30;;;10.10;;
19595;SDS011;9945;46.010;8.946;2023-03-04T02:50:32;12.60;;;10.13;;
19595;SDS011;9945;46.010;8.946;2023-03-04T02:53:01;12.37;;;9.43;;
19595;SDS011;9945;46.010;8.946;2023-03-04T02:55:28;14.00;;;10.13;;
19595;SDS011;9945;46.010;8.946;2023-03-04T02:57:56;15.13;;;10.13;;
19595;SDS011;9945;46.010;8.946;2023-03-04T03:00:23;13.73;;;10.17;;
19595;SDS011;9945;46.010;8.946;2023-03-04T03:02:52;13.57;;;9.97;;
19595;SDS011;9945;46.010;8.946;2023-03-04T03:05:21;12.37;;;11.00;;
19595;SDS011;9945;46.010;8.946;2023-03-04T03:07:49;11.13;;;10.10;;
19595;SDS011;9945;46.010;8.946;2023-03-04T03:10:16;12.30;;;10.87;;
19595;SDS011;9945;46.010;8.946;2023-03-04T03:12:43;11.13;;;9.93;;
19595;SDS011;9945;46.010;8.946;2023-03-04T03:15:10;11.00;;;9.80;;
19595;SDS011;9945;46.010;8.946;2023-03-04T03:17:37;11.97;;;10.73;;
19595;SDS011;9945;46.010;8.946;2023-03-04T03:20:07;12.27;;;10.63;;
19595;SDS011;9945;46.010;8.946;2023-03-04T03:22:35;14.47;;;10.80;;
19595;SDS011;9945;46.010;8.946;2023-03-04T03:25:02;10.43;;;9.23;;
19595;SDS011;9945;46.010;8.946;2023-03-04T03:27:30;10.90;;;9.67;;
19595;SDS011;9945;46.010;8.946;2023-03-04T03:29:57;11.63;;;10.43;;
19595;SDS011;9945;46.010;8.946;2023-03-04T03:32:24;13.87;;;9.30;;
19595;SDS011;9945;46.010;8.946;2023-03-04T03:34:51;13.40;;;9.87;;
19595;SDS011;9945;46.010;8.946;2023-03-04T03:37:19;12.37;;;9.80;;
19595;SDS011;9945;46.010;8.946;2023-03-04T03:39:46;11.97;;;10.23;;
19595;SDS011;9945;46.010;8.946;2023-03-04T03:42:13;10.90;;;9.60;;
19595;SDS011;9945;46.010;8.946;2023-03-04T03:44:39;10.97;;;9.60;;
19595;SDS011;9945;46.010;8.946;2023-03-04T03:47:06;13.37;;;9.47;;
19595;SDS011;9945;46.010;8.946;2023-03-04T03:49:33;10.70;;;8.90;;
19595;SDS011;9945;46.010;8.946;2023-03-04T03:52:00;12.50;;;10.20;;
19595;SDS011;9945;46.010;8.946;2023-03-04T03:54:28;11.57;;;9.63;;
19595;SDS011;9945;46.010;8.946;2023-03-04T03:56:55;12.13;;;9.50;;
19595;SDS011;9945;46.010;8.946;2023-03-04T03:59:22;10.37;;;9.27;;
19595;SDS011;9945;46.010;8.946;2023-03-04T04:01:49;13.47;;;10.13;;
19595;SDS011;9945;46.010;8.946;2023-03-04T04:04:16;10.77;;;8.87;;
19595;SDS011;9945;46.010;8.946;2023-03-04T04:06:43;10.30;;;8.87;;
19595;SDS011;9945;46.010;8.946;2023-03-04T04:09:10;9.53;;;8.53;;
19595;SDS011;9945;46.010;8.946;2023-03-04T04:11:38;11.27;;;9.30;;
19595;SDS011;9945;46.010;8.946;2023-03-04T04:14:05;11.87;;;9.50;;
19595;SDS011;9945;46.010;8.946;2023-03-04T04:16:32;10.33;;;9.23;;
19595;SDS011;9945;46.010;8.946;2023-03-04T04:18:58;10.30;;;8.80;;
19595;SDS011;9945;46.010;8.946;2023-03-04T04:21:25;9.43;;;8.53;;
19595;SDS011;9945;46.010;8.946;2023-03-04T04:23:52;9.83;;;8.83;;
19595;SDS011;9945;46.010;8.946;2023-03-04T04:26:19;10.23;;;9.13;;
19595;SDS011;9945;46.010;8.946;2023-03-04T04:28:47;9.60;;;8.70;;
19595;SDS011;9945;46.010;8.946;2023-03-04T04:31:14;9.80;;;8.80;;
19595;SDS011;9945;46.010;8.946;2023-03-04T04:33:41;9.70;;;8.60;;
19595;SDS011;9945;46.010;8.946;2023-03-04T04:36:08;9.07;;;8.03;;
19595;SDS011;9945;46.010;8.946;2023-03-04T04:38:39;10.80;;;8.50;;
19595;SDS011;9945;46.010;8.946;2023-03-04T04:41:08;10.90;;;8.30;;
19595;SDS011;9945;46.010;8.946;2023-03-04T04:43:43;9.77;;;8.77;;
19595;SDS011;9945;46.010;8.946;2023-03-04T04:46:12;9.93;;;7.90;;
19595;SDS011;9945;46.010;8.946;2023-03-04T04:48:39;11.43;;;8.60;;
19595;SDS011;9945;46.010;8.946;2023-03-04T04:51:06;10.33;;;8.67;;
19595;SDS011;9945;46.010;8.946;2023-03-04T04:53:33;10.23;;;9.23;;
19595;SDS011;9945;46.010;8.946;2023-03-04T04:56:06;8.87;;;7.87;;
19595;SDS011;9945;46.010;8.946;2023-03-04T04:58:34;9.13;;;8.23;;
19595;SDS011;9945;46.010;8.946;2023-03-04T05:01:02;10.80;;;8.70;;
19595;SDS011;9945;46.010;8.946;2023-03-04T05:03:30;10.07;;;8.67;;
19595;SDS011;9945;46.010;8.946;2023-03-04T05:05:57;9.43;;;8.53;;
19595;SDS011;9945;46.010;8.946;2023-03-04T05:08:24;10.97;;;9.43;;
19595;SDS011;9945;46.010;8.946;2023-03-04T05:10:51;11.93;;;9.17;;
19595;SDS011;9945;46.010;8.946;2023-03-04T05:13:18;10.40;;;8.23;;
19595;SDS011;9945;46.010;8.946;2023-03-04T05:15:45;11.53;;;9.43;;
19595;SDS011;9945;46.010;8.946;2023-03-04T05:18:12;9.70;;;8.70;;
19595;SDS011;9945;46.010;8.946;2023-03-04T05:20:40;11.20;;;9.27;;
19595;SDS011;9945;46.010;8.946;2023-03-04T05:23:07;9.40;;;8.20;;
19595;SDS011;9945;46.010;8.946;2023-03-04T05:25:34;10.57;;;8.77;;
19595;SDS011;9945;46.010;8.946;2023-03-04T05:28:00;9.53;;;8.53;;
19595;SDS011;9945;46.010;8.946;2023-03-04T05:30:29;10.33;;;9.30;;
19595;SDS011;9945;46.010;8.946;2023-03-04T05:32:56;12.83;;;8.93;;
19595;SDS011;9945;46.010;8.946;2023-03-04T05:35:22;9.03;;;8.13;;
19595;SDS011;9945;46.010;8.946;2023-03-04T05:37:51;9.63;;;8.00;;
19595;SDS011;9945;46.010;8.946;2023-03-04T05:40:18;9.73;;;8.63;;
19595;SDS011;9945;46.010;8.946;2023-03-04T05:42:45;10.57;;;8.97;;
19595;SDS011;9945;46.010;8.946;2023-03-04T05:45:13;9.63;;;8.60;;
19595;SDS011;9945;46.010;8.946;2023-03-04T05:47:39;9.97;;;8.80;;
19595;SDS011;9945;46.010;8.946;2023-03-04T05:50:07;12.87;;;9.57;;
19595;SDS011;9945;46.010;8.946;2023-03-04T05:52:34;10.27;;;8.80;;
19595;SDS011;9945;46.010;8.946;2023-03-04T05:55:03;10.33;;;8.73;;
19595;SDS011;9945;46.010;8.946;2023-03-04T05:57:30;10.87;;;9.03;;
19595;SDS011;9945;46.010;8.946;2023-03-04T05:59:57;9.93;;;8.73;;
19595;SDS011;9945;46.010;8.946;2023-03-04T06:02:24;9.07;;;8.17;;
19595;SDS011;9945;46.010;8.946;2023-03-04T06:04:51;9.53;;;8.50;;
19595;SDS011;9945;46.010;8.946;2023-03-04T06:07:18;11.47;;;9.57;;
19595;SDS011;9945;46.010;8.946;2023-03-04T06:09:45;10.50;;;9.23;;
19595;SDS011;9945;46.010;8.946;2023-03-04T06:12:13;10.33;;;9.20;;
19595;SDS011;9945;46.010;8.946;2023-03-04T06:14:40;10.03;;;9.03;;
19595;SDS011;9945;46.010;8.946;2023-03-04T06:17:07;12.70;;;8.83;;
19595;SDS011;9945;46.010;8.946;2023-03-04T06:19:34;9.67;;;8.77;;
19595;SDS011;9945;46.010;8.946;2023-03-04T06:22:02;9.73;;;8.73;;
19595;SDS011;9945;46.010;8.946;2023-03-04T06:24:28;9.53;;;8.37;;
19595;SDS011;9945;46.010;8.946;2023-03-04T06:26:55;10.77;;;9.43;;
19595;SDS011;9945;46.010;8.946;2023-03-04T06:29:23;14.60;;;9.60;;
19595;SDS011;9945;46.010;8.946;2023-03-04T06:31:51;9.30;;;8.40;;
19595;SDS011;9945;46.010;8.946;2023-03-04T06:34:18;9.20;;;8.30;;
19595;SDS011;9945;46.010;8.946;2023-03-04T06:36:45;9.03;;;8.07;;
19595;SDS011;9945;46.010;8.946;2023-03-04T06:39:12;9.50;;;8.43;;
19595;SDS011;9945;46.010;8.946;2023-03-04T06:41:39;10.30;;;9.13;;
19595;SDS011;9945;46.010;8.946;2023-03-04T06:44:06;11.97;;;9.40;;
19595;SDS011;9945;46.010;8.946;2023-03-04T06:46:35;11.80;;;9.07;;
19595;SDS011;9945;46.010;8.946;2023-03-04T06:49:01;11.87;;;8.43;;
19595;SDS011;9945;46.010;8.946;2023-03-04T06:51:28;10.20;;;8.87;;
19595;SDS011;9945;46.010;8.946;2023-03-04T06:53:55;10.27;;;9.37;;
19595;SDS011;9945;46.010;8.946;2023-03-04T06:56:22;11.97;;;9.30;;
19595;SDS011;9945;46.010;8.946;2023-03-04T06:58:49;11.53;;;9.50;;
19595;SDS011;9945;46.010;8.946;2023-03-04T07:01:17;11.20;;;10.07;;
19595;SDS011;9945;46.010;8.946;2023-03-04T07:03:47;12.13;;;9.80;;
19595;SDS011;9945;46.010;8.946;2023-03-04T07:06:16;15.13;;;10.17;;
19595;SDS011;9945;46.010;8.946;2023-03-04T07:08:44;11.50;;;9.73;;
19595;SDS011;9945;46.010;8.946;2023-03-04T07:11:11;12.10;;;9.53;;
19595;SDS011;9945;46.010;8.946;2023-03-04T07:13:38;10.93;;;9.83;;
19595;SDS011;9945;46.010;8.946;2023-03-04T07:16:05;11.87;;;9.83;;
19595;SDS011;9945;46.010;8.946;2023-03-04T07:18:33;11.33;;;9.97;;
19595;SDS011;9945;46.010;8.946;2023-03-04T07:21:02;10.30;;;9.30;;
19595;SDS011;9945;46.010;8.946;2023-03-04T07:23:29;10.53;;;9.20;;
19595;SDS011;9945;46.010;8.946;2023-03-04T07:25:56;10.47;;;9.33;;
19595;SDS011;9945;46.010;8.946;2023-03-04T07:28:22;10.73;;;9.67;;
19595;SDS011;9945;46.010;8.946;2023-03-04T07:30:49;11.43;;;10.13;;
19595;SDS011;9945;46.010;8.946;2023-03-04T07:33:16;13.67;;;10.57;;
19595;SDS011;9945;46.010;8.946;2023-03-04T07:35:43;17.43;;;10.33;;
19595;SDS011;9945;46.010;8.946;2023-03-04T07:38:11;10.80;;;9.50;;
19595;SDS011;9945;46.010;8.946;2023-03-04T07:40:38;14.63;;;9.27;;
19595;SDS011;9945;46.010;8.946;2023-03-04T07:43:05;11.53;;;9.47;;
19595;SDS011;9945;46.010;8.946;2023-03-04T07:45:32;15.07;;;10.37;;
19595;SDS011;9945;46.010;8.946;2023-03-04T07:47:59;10.47;;;9.43;;
19595;SDS011;9945;46.010;8.946;2023-03-04T07:50:26;14.17;;;10.00;;
19595;SDS011;9945;46.010;8.946;2023-03-04T07:52:52;12.37;;;9.87;;
19595;SDS011;9945;46.010;8.946;2023-03-04T07:55:21;11.37;;;10.20;;
19595;SDS011;9945;46.010;8.946;2023-03-04T07:57:48;15.23;;;9.70;;
19595;SDS011;9945;46.010;8.946;2023-03-04T08:00:15;11.50;;;10.30;;
19595;SDS011;9945;46.010;8.946;2023-03-04T08:02:42;11.57;;;9.63;;
19595;SDS011;9945;46.010;8.946;2023-03-04T08:05:09;11.33;;;9.80;;
19595;SDS011;9945;46.010;8.946;2023-03-04T08:07:36;11.57;;;9.93;;
19595;SDS011;9945;46.010;8.946;2023-03-04T08:10:03;16.33;;;10.67;;
19595;SDS011;9945;46.010;8.946;2023-03-04T08:12:33;13.67;;;9.63;;
19595;SDS011;9945;46.010;8.946;2023-03-04T08:15:01;12.17;;;9.83;;
19595;SDS011;9945;46.010;8.946;2023-03-04T08:17:28;14.67;;;9.83;;
19595;SDS011;9945;46.010;8.946;2023-03-04T08:19:56;9.97;;;8.97;;
19595;SDS011;9945;46.010;8.946;2023-03-04T08:22:22;13.43;;;9.30;;
19595;SDS011;9945;46.010;8.946;2023-03-04T08:24:49;10.77;;;9.60;;
19595;SDS011;9945;46.010;8.946;2023-03-04T08:27:16;12.05;;;9.15;;
19595;SDS011;9945;46.010;8.946;2023-03-04T08:29:44;12.60;;;9.85;;
19595;SDS011;9945;46.010;8.946;2023-03-04T08:32:11;11.77;;;9.60;;
19595;SDS011;9945;46.010;8.946;2023-03-04T08:34:38;11.07;;;9.93;;
19595;SDS011;9945;46.010;8.946;2023-03-04T08:37:05;10.90;;;9.80;;
19595;SDS011;9945;46.010;8.946;2023-03-04T08:39:32;11.57;;;9.98;;
19595;SDS011;9945;46.010;8.946;2023-03-04T08:42:00;12.48;;;9.30;;
19595;SDS011;9945;46.010;8.946;2023-03-04T08:44:27;9.18;;;8.38;;
19595;SDS011;9945;46.010;8.946;2023-03-04T08:46:56;9.27;;;8.38;;
19595;SDS011;9945;46.010;8.946;2023-03-04T08:49:22;15.05;;;12.07;;
19595;SDS011;9945;46.010;8.946;2023-03-04T08:51:49;15.80;;;12.38;;
19595;SDS011;9945;46.010;8.946;2023-03-04T08:54:16;13.30;;;11.00;;
19595;SDS011;9945;46.010;8.946;2023-03-04T08:56:43;14.48;;;12.60;;
19595;SDS011;9945;46.010;8.946;2023-03-04T08:59:10;13.02;;;11.55;;
19595;SDS011;9945;46.010;8.946;2023-03-04T09:01:37;14.05;;;10.65;;
19595;SDS011;9945;46.010;8.946;2023-03-04T09:04:05;12.82;;;11.52;;
19595;SDS011;9945;46.010;8.946;2023-03-04T09:06:32;15.23;;;12.43;;
19595;SDS011;9945;46.010;8.946;2023-03-04T09:08:59;16.85;;;11.95;;
19595;SDS011;9945;46.010;8.946;2023-03-04T09:11:26;15.50;;;12.93;;
19595;SDS011;9945;46.010;8.946;2023-03-04T09:13:53;15.48;;;12.70;;
19595;SDS011;9945;46.010;8.946;2023-03-04T09:16:20;13.55;;;12.23;;
19595;SDS011;9945;46.010;8.946;2023-03-04T09:18:47;13.85;;;11.70;;
19595;SDS011;9945;46.010;8.946;2023-03-04T09:21:15;31.35;;;24.90;;
19595;SDS011;9945;46.010;8.946;2023-03-04T09:23:42;14.23;;;12.32;;
19595;SDS011;9945;46.010;8.946;2023-03-04T09:26:13;15.68;;;12.57;;
19595;SDS011;9945;46.010;8.946;2023-03-04T09:28:42;17.05;;;13.35;;
19595;SDS011;9945;46.010;8.946;2023-03-04T09:31:12;14.32;;;12.63;;
19595;SDS011;9945;46.010;8.946;2023-03-04T09:33:39;13.63;;;12.23;;
19595;SDS011;9945;46.010;8.946;2023-03-04T09:36:08;13.77;;;12.45;;
19595;SDS011;9945;46.010;8.946;2023-03-04T09:38:37;14.98;;;10.98;;
19595;SDS011;9945;46.010;8.946;2023-03-04T09:41:06;14.85;;;12.68;;
19595;SDS011;9945;46.010;8.946;2023-03-04T09:43:35;15.93;;;12.60;;
19595;SDS011;9945;46.010;8.946;2023-03-04T09:46:06;16.80;;;11.82;;
19595;SDS011;9945;46.010;8.946;2023-03-04T09:48:38;12.38;;;10.98;;
19595;SDS011;9945;46.010;8.946;2023-03-04T09:51:17;14.43;;;11.45;;
19595;SDS011;9945;46.010;8.946;2023-03-04T09:53:50;13.63;;;12.32;;
19595;SDS011;9945;46.010;8.946;2023-03-04T09:56:30;14.57;;;10.77;;
19595;SDS011;9945;46.010;8.946;2023-03-04T09:59:01;14.93;;;12.70;;
19595;SDS011;9945;46.010;8.946;2023-03-04T10:01:35;14.63;;;12.55;;
19595;SDS011;9945;46.010;8.946;2023-03-04T10:04:09;19.35;;;13.13;;
19595;SDS011;9945;46.010;8.946;2023-03-04T10:06:40;13.43;;;12.07;;
19595;SDS011;9945;46.010;8.946;2023-03-04T10:09:11;15.27;;;13.73;;
19595;SDS011;9945;46.010;8.946;2023-03-04T10:11:43;15.77;;;12.38;;
19595;SDS011;9945;46.010;8.946;2023-03-04T10:14:17;13.90;;;12.70;;
19595;SDS011;9945;46.010;8.946;2023-03-04T10:16:58;11.45;;;10.35;;
19595;SDS011;9945;46.010;8.946;2023-03-04T10:19:35;11.57;;;10.57;;
19595;SDS011;9945;46.010;8.946;2023-03-04T10:22:14;13.98;;;12.35;;
19595;SDS011;9945;46.010;8.946;2023-03-04T10:24:46;13.13;;;11.82;;
19595;SDS011;9945;46.010;8.946;2023-03-04T10:27:14;11.68;;;10.57;;
19595;SDS011;9945;46.010;8.946;2023-03-04T10:29:45;11.35;;;10.18;;
19595;SDS011;9945;46.010;8.946;2023-03-04T10:32:12;11.45;;;10.45;;
19595;SDS011;9945;46.010;8.946;2023-03-04T10:34:41;11.02;;;10.02;;
19595;SDS011;9945;46.010;8.946;2023-03-04T10:37:08;13.20;;;10.02;;
19595;SDS011;9945;46.010;8.946;2023-03-04T10:39:37;10.95;;;9.32;;
19595;SDS011;9945;46.010;8.946;2023-03-04T10:42:09;11.40;;;9.32;;
19595;SDS011;9945;46.010;8.946;2023-03-04T10:44:50;10.73;;;9.73;;
19595;SDS011;9945;46.010;8.946;2023-03-04T10:47:21;12.07;;;10.38;;
19595;SDS011;9945;46.010;8.946;2023-03-04T10:49:49;11.70;;;10.60;;
19595;SDS011;9945;46.010;8.946;2023-03-04T10:52:18;11.02;;;9.95;;
19595;SDS011;9945;46.010;8.946;2023-03-04T10:54:52;10.93;;;9.93;;
19595;SDS011;9945;46.010;8.946;2023-03-04T10:57:24;9.85;;;8.88;;
19595;SDS011;9945;46.010;8.946;2023-03-04T10:59:59;9.55;;;8.63;;
19595;SDS011;9945;46.010;8.946;2023-03-04T11:02:27;12.77;;;9.18;;
19595;SDS011;9945;46.010;8.946;2023-03-04T11:04:58;10.02;;;9.18;;
19595;SDS011;9945;46.010;8.946;2023-03-04T11:07:35;9.43;;;8.52;;
19595;SDS011;9945;46.010;8.946;2023-03-04T11:10:08;10.95;;;7.20;;
19595;SDS011;9945;46.010;8.946;2023-03-04T11:12:37;8.48;;;7.68;;
19595;SDS011;9945;46.010;8.946;2023-03-04T11:15:14;8.20;;;7.40;;
19595;SDS011;9945;46.010;8.946;2023-03-04T11:17:44;7.35;;;6.00;;
19595;SDS011;9945;46.010;8.946;2023-03-04T11:20:16;7.28;;;6.30;;
19595;SDS011;9945;46.010;8.946;2023-03-04T11:22:50;7.75;;;6.25;;
19595;SDS011;9945;46.010;8.946;2023-03-04T11:25:20;8.20;;;6.22;;
19595;SDS011;9945;46.010;8.946;2023-03-04T11:27:54;9.60;;;6.43;;
19595;SDS011;9945;46.010;8.946;2023-03-04T11:30:34;7.43;;;6.75;;
19595;SDS011;9945;46.010;8.946;2023-03-04T11:33:09;9.35;;;7.85;;
19595;SDS011;9945;46.010;8.946;2023-03-04T11:35:46;6.47;;;5.88;;
19595;SDS011;9945;46.010;8.946;2023-03-04T11:38:25;6.78;;;6.07;;
19595;SDS011;9945;46.010;8.946;2023-03-04T11:41:01;7.13;;;6.28;;
19595;SDS011;9945;46.010;8.946;2023-03-04T11:43:33;7.72;;;7.05;;
19595;SDS011;9945;46.010;8.946;2023-03-04T11:46:19;12.15;;;10.90;;
19595;SDS011;9945;46.010;8.946;2023-03-04T11:52:05;9.07;;;6.90;;
19595;SDS011;9945;46.010;8.946;2023-03-04T11:54:42;8.13;;;7.32;;
19595;SDS011;9945;46.010;8.946;2023-03-04T11:57:25;10.65;;;8.60;;
19595;SDS011;9945;46.010;8.946;2023-03-04T12:00:09;9.68;;;8.65;;
19595;SDS011;9945;46.010;8.946;2023-03-04T12:02:46;11.35;;;8.30;;
19595;SDS011;9945;46.010;8.946;2023-03-04T12:05:30;13.05;;;8.75;;
19595;SDS011;9945;46.010;8.946;2023-03-04T12:08:24;11.70;;;8.77;;
19595;SDS011;9945;46.010;8.946;2023-03-04T12:11:08;9.68;;;8.68;;
19595;SDS011;9945;46.010;8.946;2023-03-04T12:13:56;8.50;;;7.75;;
19595;SDS011;9945;46.010;8.946;2023-03-04T12:16:49;10.27;;;9.32;;
19595;SDS011;9945;46.010;8.946;2023-03-04T12:19:29;10.45;;;9.07;;
19595;SDS011;9945;46.010;8.946;2023-03-04T12:22:07;12.30;;;10.98;;
19595;SDS011;9945;46.010;8.946;2023-03-04T12:24:51;11.02;;;9.85;;
19595;SDS011;9945;46.010;8.946;2023-03-04T12:27:34;10.98;;;10.05;;
19595;SDS011;9945;46.010;8.946;2023-03-04T12:30:12;14.45;;;13.13;;
19595;SDS011;9945;46.010;8.946;2023-03-04T12:32:48;17.23;;;12.15;;
19595;SDS011;9945;46.010;8.946;2023-03-04T12:35:23;14.20;;;12.73;;
19595;SDS011;9945;46.010;8.946;2023-03-04T12:41:03;13.32;;;12.07;;
19595;SDS011;9945;46.010;8.946;2023-03-04T12:43:44;13.15;;;12.05;;
19595;SDS011;9945;46.010;8.946;2023-03-04T12:46:22;13.88;;;12.02;;
19595;SDS011;9945;46.010;8.946;2023-03-04T12:49:02;15.43;;;12.43;;
19595;SDS011;9945;46.010;8.946;2023-03-04T12:51:52;14.05;;;12.73;;
19595;SDS011;9945;46.010;8.946;2023-03-04T12:54:28;11.88;;;10.70;;
19595;SDS011;9945;46.010;8.946;2023-03-04T12:56:59;12.13;;;10.85;;
19595;SDS011;9945;46.010;8.946;2023-03-04T12:59:35;12.93;;;11.73;;
19595;SDS011;9945;46.010;8.946;2023-03-04T13:05:06;11.50;;;10.40;;
19595;SDS011;9945;46.010;8.946;2023-03-04T13:07:51;18.55;;;13.05;;
19595;SDS011;9945;46.010;8.946;2023-03-04T13:10:27;14.07;;;12.68;;
19595;SDS011;9945;46.010;8.946;2023-03-04T13:12:55;16.65;;;12.98;;
19595;SDS011;9945;46.010;8.946;2023-03-04T13:15:27;13.32;;;11.90;;
19595;SDS011;9945;46.010;8.946;2023-03-04T13:17:57;14.30;;;12.40;;
19595;SDS011;9945;46.010;8.946;2023-03-04T13:20:36;12.88;;;11.55;;
19595;SDS011;9945;46.010;8.946;2023-03-04T13:23:20;16.23;;;11.70;;
19595;SDS011;9945;46.010;8.946;2023-03-04T13:28:45;12.70;;;11.55;;
19595;SDS011;9945;46.010;8.946;2023-03-04T13:31:21;12.57;;;11.27;;
19595;SDS011;9945;46.010;8.946;2023-03-04T13:33:55;12.73;;;10.80;;
19595;SDS011;9945;46.010;8.946;2023-03-04T13:36:31;13.23;;;11.98;;
19595;SDS011;9945;46.010;8.946;2023-03-04T13:39:00;12.00;;;10.75;;
19595;SDS011;9945;46.010;8.946;2023-03-04T13:41:30;10.27;;;9.35;;
19595;SDS011;9945;46.010;8.946;2023-03-04T13:47:39;13.70;;;12.23;;
19595;SDS011;9945;46.010;8.946;2023-03-04T13:50:22;12.00;;;10.63;;
19595;SDS011;9945;46.010;8.946;2023-03-04T13:52:55;16.13;;;12.02;;
19595;SDS011;9945;46.010;8.946;2023-03-04T13:55:30;12.70;;;11.50;;
19595;SDS011;9945;46.010;8.946;2023-03-04T13:58:00;12.70;;;11.50;;
19595;SDS011;9945;46.010;8.946;2023-03-04T14:00:29;15.10;;;11.63;;
19595;SDS011;9945;46.010;8.946;2023-03-04T14:03:11;13.95;;;10.93;;
19595;SDS011;9945;46.010;8.946;2023-03-04T14:05:38;11.52;;;10.52;;
19595;SDS011;9945;46.010;8.946;2023-03-04T14:10:54;12.32;;;10.98;;
19595;SDS011;9945;46.010;8.946;2023-03-04T14:13:21;15.02;;;12.13;;
19595;SDS011;9945;46.010;8.946;2023-03-04T14:15:53;14.98;;;12.85;;
19595;SDS011;9945;46.010;8.946;2023-03-04T14:18:21;12.75;;;11.45;;
19595;SDS011;9945;46.010;8.946;2023-03-04T14:20:49;13.98;;;12.50;;
19595;SDS011;9945;46.010;8.946;2023-03-04T14:23:25;15.05;;;13.55;;
19595;SDS011;9945;46.010;8.946;2023-03-04T14:26:03;15.43;;;13.32;;
19595;SDS011;9945;46.010;8.946;2023-03-04T14:28:41;17.40;;;13.98;;
19595;SDS011;9945;46.010;8.946;2023-03-04T14:31:13;15.48;;;12.85;;
19595;SDS011;9945;46.010;8.946;2023-03-04T14:33:44;15.18;;;13.63;;
19595;SDS011;9945;46.010;8.946;2023-03-04T14:36:17;12.98;;;11.70;;
19595;SDS011;9945;46.010;8.946;2023-03-04T14:38:50;14.00;;;12.65;;
19595;SDS011;9945;46.010;8.946;2023-03-04T14:41:20;15.20;;;12.43;;
19595;SDS011;9945;46.010;8.946;2023-03-04T14:43:55;19.98;;;14.57;;
19595;SDS011;9945;46.010;8.946;2023-03-04T14:46:29;13.15;;;11.75;;
19595;SDS011;9945;46.010;8.946;2023-03-04T14:49:00;15.80;;;12.88;;
19595;SDS011;9945;46.010;8.946;2023-03-04T14:51:32;14.27;;;12.70;;
19595;SDS011;9945;46.010;8.946;2023-03-04T14:57:00;13.10;;;11.88;;
19595;SDS011;9945;46.010;8.946;2023-03-04T14:59:40;15.38;;;13.70;;
19595;SDS011;9945;46.010;8.946;2023-03-04T15:02:07;14.75;;;13.23;;
19595;SDS011;9945;46.010;8.946;2023-03-04T15:04:46;17.27;;;14.23;;
19595;SDS011;9945;46.010;8.946;2023-03-04T15:07:15;16.00;;;14.20;;
19595;SDS011;9945;46.010;8.946;2023-03-04T15:09:52;16.55;;;14.07;;
19595;SDS011;9945;46.010;8.946;2023-03-04T15:12:21;15.68;;;14.07;;
19595;SDS011;9945;46.010;8.946;2023-03-04T15:14:50;21.45;;;14.20;;
19595;SDS011;9945;46.010;8.946;2023-03-04T15:17:23;16.17;;;13.45;;
19595;SDS011;9945;46.010;8.946;2023-03-04T15:19:58;20.02;;;14.38;;
19595;SDS011;9945;46.010;8.946;2023-03-04T15:22:27;18.27;;;14.13;;
19595;SDS011;9945;46.010;8.946;2023-03-04T15:24:55;20.15;;;15.40;;